Time;durP1;ratioP1;P1;durP2;ratioP2;P2;SDS_P1;SDS_P2;PMS_P1;PMS_P2;Temp;Humidity;BMP_temperature;BMP_pressure;BME280_temperature;BME280_humidity;BME280_pressure;Samples;Min_cycle;Max_cycle;Signal;HPM_P1;HPM_P2
2023/01/26 00:01:16;;;;;;;37.78;17.20;;;1.50;99.90;;;;;;4981418;28;20077;-77
2023/01/26 00:03:42;;;;;;;43.00;18.95;;;1.50;99.90;;;;;;4980181;28;20030;-77
2023/01/26 00:06:10;;;;;;;41.38;19.23;;;1.50;99.90;;;;;;4980084;28;20061;-77
2023/01/26 00:08:37;;;;;;;38.10;17.90;;;1.40;99.90;;;;;;4996527;28;20037;-77
2023/01/26 00:11:04;;;;;;;37.80;17.50;;;1.40;99.90;;;;;;4979383;28;20435;-77
2023/01/26 00:13:30;;;;;;;43.97;19.48;;;1.40;99.90;;;;;;4979629;28;20456;-77
2023/01/26 00:15:56;;;;;;;36.15;16.10;;;1.40;99.90;;;;;;4996921;28;20092;-77
2023/01/26 00:18:21;;;;;;;26.38;12.30;;;1.40;99.90;;;;;;4978846;28;20022;-77
2023/01/26 00:20:49;;;;;;;29.77;13.02;;;1.30;99.90;;;;;;4978589;28;20034;-77
2023/01/26 00:23:15;;;;;;;33.85;13.95;;;1.30;99.90;;;;;;4978605;28;20045;-76
2023/01/26 00:25:40;;;;;;;33.67;12.27;;;1.30;99.90;;;;;;4996557;28;20026;-77
2023/01/26 00:28:06;;;;;;;31.67;14.32;;;1.20;99.90;;;;;;4995881;28;20479;-77
2023/01/26 00:30:31;;;;;;;31.13;13.25;;;1.20;99.90;;;;;;4978588;28;20041;-77
2023/01/26 00:32:57;;;;;;;28.65;12.50;;;1.20;99.90;;;;;;4996043;28;20022;-77
2023/01/26 00:35:23;;;;;;;25.98;12.00;;;1.10;99.90;;;;;;4996150;28;20483;-77
2023/01/26 00:37:49;;;;;;;26.02;11.85;;;1.10;99.90;;;;;;4975625;28;20440;-77
2023/01/26 00:40:15;;;;;;;20.50;9.93;;;1.10;99.90;;;;;;4977232;28;20035;-77
2023/01/26 00:42:40;;;;;;;21.08;8.77;;;1.10;99.90;;;;;;4977586;28;20047;-77
2023/01/26 00:45:06;;;;;;;20.60;8.48;;;1.00;99.90;;;;;;4976688;28;20078;-77
2023/01/26 00:47:32;;;;;;;20.80;9.38;;;1.00;99.90;;;;;;4974552;28;20030;-77
2023/01/26 00:49:58;;;;;;;23.90;10.70;;;1.00;99.90;;;;;;4975438;28;20026;-77
2023/01/26 00:52:23;;;;;;;25.00;11.23;;;1.00;99.90;;;;;;4975437;28;20030;-77
2023/01/26 00:54:49;;;;;;;17.90;8.75;;;1.10;99.90;;;;;;4975676;28;20042;-77
2023/01/26 00:57:14;;;;;;;24.15;11.13;;;1.10;99.90;;;;;;4975500;28;20389;-77
2023/01/26 00:59:40;;;;;;;22.30;10.07;;;;;;;;;;4975729;28;20031;-76
2023/01/26 01:02:06;;;;;;;19.65;9.88;;;1.10;99.90;;;;;;4975285;28;20384;-77
2023/01/26 01:04:32;;;;;;;20.05;8.38;;;1.00;99.90;;;;;;4974179;28;20031;-76
2023/01/26 01:06:57;;;;;;;22.70;10.50;;;1.10;99.90;;;;;;4975548;28;20106;-77
2023/01/26 01:09:24;;;;;;;19.70;8.68;;;1.10;99.90;;;;;;4975219;28;20069;-77
2023/01/26 01:11:50;;;;;;;19.65;9.20;;;1.10;99.90;;;;;;4975446;28;20054;-77
2023/01/26 01:14:16;;;;;;;16.90;8.80;;;1.10;99.90;;;;;;4974108;28;20035;-77
2023/01/26 01:16:42;;;;;;;20.70;9.90;;;1.10;99.90;;;;;;4974695;28;20126;-76
2023/01/26 01:19:16;;;;;;;18.17;8.88;;;1.10;99.90;;;;;;4975306;28;20461;-77
2023/01/26 01:21:42;;;;;;;18.83;9.88;;;1.10;99.90;;;;;;4975558;28;20031;-76
2023/01/26 01:24:08;;;;;;;18.77;9.80;;;1.10;99.90;;;;;;4974109;28;20038;-77
2023/01/26 01:26:34;;;;;;;20.20;10.02;;;1.00;99.90;;;;;;4975598;28;20034;-77
2023/01/26 01:29:00;;;;;;;17.48;9.30;;;1.10;99.90;;;;;;4973901;28;20362;-77
2023/01/26 01:31:28;;;;;;;17.27;8.27;;;;;;;;;;4975124;28;20038;-77
2023/01/26 01:33:54;;;;;;;18.35;8.05;;;1.10;99.90;;;;;;4974039;28;20085;-77
2023/01/26 01:36:20;;;;;;;17.73;7.85;;;1.10;99.90;;;;;;4973852;28;20037;-77
2023/01/26 01:38:47;;;;;;;14.48;8.07;;;1.10;99.90;;;;;;4986660;28;20377;-77
2023/01/26 01:41:15;;;;;;;19.50;9.07;;;1.10;99.90;;;;;;4994466;28;20081;-77
2023/01/26 01:43:41;;;;;;;20.77;9.80;;;1.20;99.90;;;;;;4994297;28;20080;-76
2023/01/26 01:46:35;;;;;;;19.25;9.35;;;1.10;99.90;;;;;;4994454;28;20110;-76
2023/01/26 01:49:13;;;;;;;20.83;10.70;;;1.10;99.90;;;;;;4969026;28;20085;-77
2023/01/26 01:51:44;;;;;;;18.17;9.70;;;1.10;99.90;;;;;;4977049;28;20034;-77
2023/01/26 01:54:15;;;;;;;20.83;9.55;;;1.20;99.90;;;;;;4980789;28;20022;-76
2023/01/26 01:56:45;;;;;;;19.50;9.07;;;1.10;99.90;;;;;;4998062;28;20022;-76
2023/01/26 01:59:12;;;;;;;20.33;10.20;;;1.10;99.90;;;;;;4980440;28;20121;-76
2023/01/26 02:01:38;;;;;;;15.82;8.85;;;1.20;99.90;;;;;;4998028;28;20480;-76
2023/01/26 02:04:06;;;;;;;20.83;9.73;;;1.10;99.90;;;;;;4997688;28;20026;-76
2023/01/26 02:06:52;;;;;;;21.60;10.20;;;1.10;99.90;;;;;;4997923;28;20069;-76
2023/01/26 02:12:12;;;;;;;18.75;9.02;;;1.10;99.90;;;;;;4997652;28;20198;-76
2023/01/26 02:14:38;;;;;;;22.08;10.75;;;1.10;99.90;;;;;;4997837;28;20030;-76
2023/01/26 02:17:04;;;;;;;28.58;10.82;;;1.10;99.90;;;;;;4997670;28;20053;-76
2023/01/26 02:19:47;;;;;;;21.33;10.27;;;1.10;99.90;;;;;;4997392;28;20069;-76
2023/01/26 02:22:31;;;;;;;21.52;10.82;;;1.10;99.90;;;;;;4980216;28;20031;-76
2023/01/26 02:25:05;;;;;;;20.13;9.68;;;1.10;99.90;;;;;;4997703;28;20026;-76
2023/01/26 02:27:31;;;;;;;20.77;11.07;;;1.10;99.90;;;;;;4997355;28;20388;-77
2023/01/26 02:30:00;;;;;;;19.25;10.93;;;1.10;99.90;;;;;;4997705;28;20034;-76
2023/01/26 02:32:27;;;;;;;27.15;11.43;;;1.10;99.90;;;;;;4980063;28;20388;-76
2023/01/26 02:34:56;;;;;;;29.65;11.90;;;1.20;99.90;;;;;;4997365;28;20121;-76
2023/01/26 02:37:22;;;;;;;23.52;11.32;;;1.20;99.90;;;;;;4997145;28;20076;-76
2023/01/26 02:40:24;;;;;;;23.10;12.27;;;1.20;99.90;;;;;;4997032;28;20101;-76
2023/01/26 02:42:53;;;;;;;23.83;11.18;;;1.20;99.90;;;;;;4996808;28;20042;-77
2023/01/26 02:45:19;;;;;;;;;;;1.20;99.90;;;;;;4997734;28;20033;-76
2023/01/26 02:47:45;;;;;;;26.60;11.80;;;1.20;99.90;;;;;;4980038;28;20344;-77
2023/01/26 02:50:11;;;;;;;28.17;11.95;;;1.20;99.90;;;;;;4980029;28;20064;-77
2023/01/26 02:52:37;;;;;;;25.73;12.70;;;1.20;99.90;;;;;;4997496;28;20384;-77
2023/01/26 02:55:23;;;;;;;24.15;12.00;;;1.30;99.90;;;;;;4997433;28;20022;-77
2023/01/26 02:57:51;;;;;;;28.70;12.68;;;1.20;99.90;;;;;;4997091;28;20026;-76
2023/01/26 03:00:23;;;;;;;27.48;11.45;;;1.20;99.90;;;;;;4997211;28;20069;-77
2023/01/26 03:02:51;;;;;;;26.50;12.23;;;1.20;99.90;;;;;;4996970;28;20132;-77
2023/01/26 03:05:17;;;;;;;28.77;12.63;;;1.20;99.90;;;;;;4996521;28;20116;-77
2023/01/26 03:07:42;;;;;;;27.05;12.80;;;1.20;99.90;;;;;;4997030;28;20117;-77
2023/01/26 03:10:09;;;;;;;24.05;11.65;;;1.20;99.90;;;;;;4997027;28;20081;-77
2023/01/26 03:12:34;;;;;;;30.08;13.95;;;1.20;99.90;;;;;;4997353;28;20022;-77
2023/01/26 03:17:44;;;;;;;29.75;12.57;;;1.20;99.90;;;;;;4997254;28;20033;-76
2023/01/26 03:28:24;;;;;;;29.35;13.32;;;1.20;99.90;;;;;;4996698;28;20073;-77
2023/01/26 03:30:51;;;;;;;30.13;13.70;;;1.20;99.90;;;;;;4996713;28;20038;-77
2023/01/26 03:33:18;;;;;;;26.80;13.07;;;1.20;99.90;;;;;;4996759;28;20027;-76
2023/01/26 03:35:43;;;;;;;21.60;11.60;;;1.20;99.90;;;;;;4997081;28;20022;-76
2023/01/26 03:38:09;;;;;;;26.67;13.23;;;1.20;99.90;;;;;;4996548;28;20444;-76
2023/01/26 03:57:01;;;;;;;30.42;14.48;;;1.20;99.90;;;;;;4996347;28;20034;-76
2023/01/26 03:59:38;;;;;;;34.80;15.77;;;1.10;99.90;;;;;;4996049;28;20472;-76
2023/01/26 04:10:20;;;;;;;31.05;12.98;;;1.10;99.90;;;;;;4995823;28;20084;-76
2023/01/26 04:23:46;;;;;;;33.05;13.77;;;1.10;99.90;;;;;;4996052;28;20041;-76
2023/01/26 04:26:12;;;;;;;32.80;13.93;;;1.10;99.90;;;;;;4995622;28;20109;-76
2023/01/26 04:28:38;;;;;;;29.88;14.55;;;1.00;99.90;;;;;;4978823;28;20022;-76
2023/01/26 04:31:03;;;;;;;32.47;15.45;;;1.00;99.90;;;;;;4995750;28;20108;-76
2023/01/26 04:33:29;;;;;;;34.30;13.55;;;1.00;99.90;;;;;;4995634;28;20035;-76
2023/01/26 04:35:55;;;;;;;33.42;15.40;;;1.00;99.90;;;;;;4995843;28;20026;-76
2023/01/26 04:38:21;;;;;;;32.30;14.68;;;1.00;99.90;;;;;;4995426;28;20487;-76
2023/01/26 04:40:54;;;;;;;31.70;15.02;;;1.10;99.90;;;;;;4977940;28;20034;-76
2023/01/26 04:43:19;;;;;;;27.80;13.18;;;1.10;99.90;;;;;;4978077;28;20038;-75
2023/01/26 04:45:59;;;;;;;40.65;14.82;;;1.10;99.90;;;;;;4995117;28;20368;-76
2023/01/26 04:48:26;;;;;;;33.33;14.27;;;1.00;99.90;;;;;;4995566;28;20038;-76
2023/01/26 04:51:04;;;;;;;33.40;13.85;;;1.10;99.90;;;;;;4995253;28;20022;-76
2023/01/26 04:53:31;;;;;;;30.15;14.55;;;1.00;99.90;;;;;;4995656;28;20026;-76
2023/01/26 04:55:57;;;;;;;26.05;12.95;;;1.00;99.90;;;;;;4978418;28;20034;-75
2023/01/26 04:58:23;;;;;;;26.35;13.10;;;1.00;99.90;;;;;;4978013;28;20033;-75
2023/01/26 05:00:57;;;;;;;24.50;13.02;;;1.00;99.90;;;;;;4995115;28;20030;-75
2023/01/26 05:03:24;;;;;;;23.77;10.88;;;1.00;99.90;;;;;;4995515;28;20349;-76
2023/01/26 05:05:51;;;;;;;23.92;11.70;;;1.00;99.90;;;;;;4977879;28;20041;-76
2023/01/26 05:08:19;;;;;;;21.75;12.07;;;1.00;99.90;;;;;;4995238;28;20030;-76
2023/01/26 05:10:45;;;;;;;22.75;11.32;;;1.00;99.90;;;;;;4994869;28;20388;-76
2023/01/26 05:13:11;;;;;;;29.05;12.60;;;1.00;99.90;;;;;;4994605;28;20026;-76
2023/01/26 05:15:37;;;;;;;23.83;11.20;;;1.00;99.90;;;;;;4994916;28;20030;-75
2023/01/26 05:18:03;;;;;;;21.33;11.10;;;1.00;99.90;;;;;;4995032;28;20034;-75
2023/01/26 05:20:28;;;;;;;20.30;11.38;;;1.00;99.90;;;;;;4994972;28;20039;-77
2023/01/26 05:22:54;;;;;;;22.67;10.77;;;1.00;99.90;;;;;;4994647;28;20076;-78
2023/01/26 05:25:20;;;;;;;23.92;10.30;;;1.00;99.90;;;;;;4977506;28;20117;-76
2023/01/26 05:27:46;;;;;;;20.23;9.32;;;1.00;99.90;;;;;;4997641;28;20033;-75
2023/01/26 05:30:12;;;;;;;24.52;10.80;;;1.00;99.90;;;;;;4983883;28;20062;-75
2023/01/26 05:32:38;;;;;;;19.50;9.70;;;1.00;99.90;;;;;;5001792;28;20037;-79
2023/01/26 05:35:05;;;;;;;20.00;9.73;;;0.90;99.90;;;;;;4984852;28;20484;-77
2023/01/26 05:37:31;;;;;;;18.27;9.90;;;0.90;99.90;;;;;;4984314;28;20184;-77
2023/01/26 05:39:58;;;;;;;18.40;8.77;;;0.90;99.90;;;;;;5002479;28;20046;-78
2023/01/26 05:42:25;;;;;;;17.35;9.02;;;0.90;99.90;;;;;;5004352;28;20092;-80
2023/01/26 05:44:50;;;;;;;18.52;9.85;;;0.90;99.90;;;;;;4986530;28;20022;-80
2023/01/26 05:47:16;;;;;;;20.80;10.00;;;0.90;99.90;;;;;;4985604;28;20109;-78
2023/01/26 05:49:42;;;;;;;27.90;11.55;;;0.90;99.90;;;;;;5002286;28;20026;-79
2023/01/26 05:52:09;;;;;;;22.55;11.02;;;0.90;99.90;;;;;;5001010;28;20085;-78
2023/01/26 05:54:35;;;;;;;23.40;10.15;;;0.90;99.90;;;;;;4984220;28;20035;-78
2023/01/26 05:57:01;;;;;;;22.02;9.80;;;1.00;99.90;;;;;;4984034;28;20357;-76
2023/01/26 05:59:26;;;;;;;22.45;10.68;;;0.90;99.90;;;;;;4983707;28;20030;-78
2023/01/26 06:01:52;;;;;;;20.35;10.13;;;0.90;99.90;;;;;;5001230;28;20484;-78
2023/01/26 06:04:18;;;;;;;26.52;11.32;;;0.90;99.90;;;;;;5001282;28;20041;-77
2023/01/26 06:06:43;;;;;;;23.77;10.50;;;0.90;99.90;;;;;;4984104;28;20388;-77
2023/01/26 06:09:10;;;;;;;22.45;11.57;;;0.90;99.90;;;;;;5001572;28;20030;-77
2023/01/26 06:11:35;;;;;;;21.17;10.10;;;0.90;99.90;;;;;;5000962;28;20105;-77
2023/01/26 06:14:01;;;;;;;20.30;9.52;;;0.90;99.90;;;;;;5000792;28;20057;-77
2023/01/26 06:16:27;;;;;;;19.60;9.90;;;0.90;99.90;;;;;;4983148;28;20081;-77
2023/01/26 06:18:52;;;;;;;24.33;11.25;;;0.90;99.90;;;;;;4983250;28;20036;-77
2023/01/26 06:21:18;;;;;;;25.63;11.25;;;1.00;99.90;;;;;;5000938;28;20384;-77
2023/01/26 06:23:44;;;;;;;30.65;11.90;;;1.00;99.90;;;;;;5000725;28;20460;-78
2023/01/26 06:26:09;;;;;;;27.80;9.82;;;1.00;99.90;;;;;;5001059;28;20034;-78
2023/01/26 06:28:35;;;;;;;20.60;9.52;;;1.00;99.90;;;;;;5000863;28;20030;-78
2023/01/26 06:31:02;;;;;;;18.65;9.43;;;0.90;99.90;;;;;;5001354;28;20464;-78
2023/01/26 06:33:30;;;;;;;24.30;9.88;;;1.00;99.90;;;;;;5003879;28;20122;-78
2023/01/26 06:35:56;;;;;;;27.42;10.18;;;1.00;99.90;;;;;;4986444;28;20033;-78
2023/01/26 06:38:21;;;;;;;22.35;10.50;;;1.00;99.90;;;;;;4984533;28;20050;-78
2023/01/26 06:40:47;;;;;;;19.60;9.73;;;1.00;99.90;;;;;;4999307;28;20399;-78
2023/01/26 06:43:13;;;;;;;23.52;10.20;;;1.00;99.90;;;;;;4983469;28;20528;-78
2023/01/26 06:45:38;;;;;;;20.00;9.55;;;1.00;99.90;;;;;;4983091;28;20113;-78
2023/01/26 06:48:04;;;;;;;20.30;9.55;;;1.00;99.90;;;;;;4982193;28;20037;-78
2023/01/26 06:50:34;;;;;;;21.08;10.38;;;1.00;99.90;;;;;;4999584;28;20388;-78
2023/01/26 06:53:15;;;;;;;26.10;9.82;;;1.00;99.90;;;;;;4997998;28;20457;-78
2023/01/26 06:55:41;;;;;;;21.15;9.48;;;1.10;99.90;;;;;;4998818;28;20048;-78
2023/01/26 06:58:07;;;;;;;19.15;9.75;;;1.00;99.90;;;;;;4998916;28;20463;-78
2023/01/26 07:00:32;;;;;;;19.52;9.27;;;0.90;99.90;;;;;;4998372;28;20088;-77
2023/01/26 07:02:58;;;;;;;23.13;10.60;;;0.90;99.90;;;;;;4998562;28;20105;-77
2023/01/26 07:05:24;;;;;;;26.10;9.82;;;1.00;99.90;;;;;;4998402;28;20062;-78
2023/01/26 07:07:49;;;;;;;23.80;10.27;;;1.00;99.90;;;;;;4998043;28;20491;-77
2023/01/26 07:10:15;;;;;;;25.98;9.55;;;1.00;99.90;;;;;;4980363;28;20041;-77
2023/01/26 07:12:43;;;;;;;27.20;9.60;;;1.00;99.90;;;;;;4997868;28;20076;-77
2023/01/26 07:15:10;;;;;;;17.17;6.70;;;1.00;99.90;;;;;;4997413;28;20034;-78
2023/01/26 07:17:36;;;;;;;23.58;10.57;;;1.00;99.90;;;;;;4980047;28;20026;-78
2023/01/26 07:20:02;;;;;;;24.23;9.43;;;1.00;99.90;;;;;;4997852;28;20088;-78
2023/01/26 07:22:28;;;;;;;25.58;9.32;;;1.00;99.90;;;;;;4998164;28;20042;-78
2023/01/26 07:24:54;;;;;;;24.27;10.18;;;1.00;99.90;;;;;;4981107;28;20114;-78
2023/01/26 07:27:19;;;;;;;21.08;10.38;;;1.00;99.90;;;;;;4998061;28;20034;-78
2023/01/26 07:29:45;;;;;;;28.92;10.25;;;1.00;99.90;;;;;;4980032;28;20033;-78
2023/01/26 07:32:11;;;;;;;27.55;10.95;;;1.00;99.90;;;;;;4997585;28;20023;-78
2023/01/26 07:34:37;;;;;;;26.45;10.60;;;1.00;99.90;;;;;;4997276;28;20380;-78
2023/01/26 07:37:04;;;;;;;25.83;11.32;;;1.00;99.90;;;;;;4979530;28;20032;-78
2023/01/26 07:39:30;;;;;;;27.13;10.80;;;1.10;99.90;;;;;;4997843;28;20050;-78
2023/01/26 07:41:55;;;;;;;24.60;10.43;;;1.00;99.90;;;;;;4997543;28;20038;-78
2023/01/26 07:44:21;;;;;;;23.63;10.52;;;1.10;99.90;;;;;;4997348;28;20173;-78
2023/01/26 07:46:47;;;;;;;25.15;11.20;;;1.00;99.90;;;;;;4996649;28;20022;-78
2023/01/26 07:49:12;;;;;;;21.23;10.85;;;1.10;99.90;;;;;;4979763;28;20050;-79
2023/01/26 07:51:38;;;;;;;27.02;12.15;;;1.10;99.90;;;;;;4997368;28;20027;-79
2023/01/26 07:54:05;;;;;;;23.58;11.68;;;1.10;99.90;;;;;;4997578;28;20062;-78
2023/01/26 07:56:31;;;;;;;25.40;11.20;;;1.10;99.90;;;;;;4979851;28;20120;-78
2023/01/26 07:58:56;;;;;;;29.38;12.65;;;1.10;99.90;;;;;;4997358;28;20022;-78
2023/01/26 08:01:22;;;;;;;23.52;11.63;;;1.10;99.90;;;;;;4996940;28;20538;-78
2023/01/26 08:03:54;;;;;;;30.38;12.82;;;1.10;99.90;;;;;;4995722;28;20030;-78
2023/01/26 08:06:20;;;;;;;28.40;12.63;;;1.20;99.90;;;;;;4995987;28;20034;-78
2023/01/26 08:08:50;;;;;;;33.70;13.75;;;1.20;99.90;;;;;;4978915;28;20113;-78
2023/01/26 08:11:18;;;;;;;30.48;13.35;;;1.20;99.90;;;;;;4979638;28;20369;-78
2023/01/26 08:13:44;;;;;;;31.05;13.82;;;1.30;99.90;;;;;;4997379;28;20030;-78
2023/01/26 08:16:13;;;;;;;33.35;13.95;;;1.30;99.90;;;;;;4996494;28;20034;-78
2023/01/26 08:18:44;;;;;;;34.28;13.40;;;1.30;99.90;;;;;;4979304;28;20464;-78
2023/01/26 08:21:11;;;;;;;34.47;13.93;;;1.30;99.90;;;;;;4995779;28;20043;-78
2023/01/26 08:23:37;;;;;;;36.42;14.63;;;1.30;99.90;;;;;;4995135;28;20443;-79
2023/01/26 08:26:05;;;;;;;37.85;15.57;;;1.30;99.90;;;;;;4995755;28;20035;-79
2023/01/26 08:28:31;;;;;;;39.05;15.98;;;1.30;99.90;;;;;;4995380;28;20030;-79
2023/01/26 08:31:06;;;;;;;39.42;15.63;;;1.30;99.90;;;;;;4995308;28;20105;-79
2023/01/26 08:33:32;;;;;;;38.47;15.82;;;1.30;99.90;;;;;;4995148;28;20535;-79
2023/01/26 08:36:03;;;;;;;40.97;16.70;;;1.30;99.90;;;;;;4977690;28;20031;-79
2023/01/26 08:38:30;;;;;;;45.35;18.85;;;1.30;99.90;;;;;;4977743;28;20405;-79
2023/01/26 08:40:56;;;;;;;44.42;16.42;;;1.30;99.90;;;;;;4995279;28;20448;-79
2023/01/26 08:43:22;;;;;;;43.17;15.60;;;1.30;99.90;;;;;;4994808;28;20033;-79
2023/01/26 08:45:48;;;;;;;44.63;16.15;;;1.30;99.90;;;;;;4994971;28;20030;-79
2023/01/26 08:48:13;;;;;;;49.38;18.40;;;1.30;99.90;;;;;;4995164;28;20107;-79
2023/01/26 08:50:39;;;;;;;41.63;17.80;;;1.30;99.90;;;;;;4977542;28;20030;-79
2023/01/26 08:53:04;;;;;;;46.92;16.95;;;1.30;99.90;;;;;;4994854;28;20032;-79
2023/01/26 08:55:31;;;;;;;53.78;18.90;;;1.30;99.90;;;;;;4977489;28;20034;-79
2023/01/26 08:57:57;;;;;;;47.55;18.05;;;1.30;99.90;;;;;;4994826;28;20077;-79
2023/01/26 09:00:23;;;;;;;51.05;18.92;;;1.30;99.90;;;;;;4977221;28;20027;-79
2023/01/26 09:02:50;;;;;;;49.65;17.80;;;1.30;99.90;;;;;;4994122;28;20647;-79
2023/01/26 09:05:16;;;;;;;53.53;18.48;;;1.40;99.90;;;;;;4994958;28;20022;-79
2023/01/26 09:07:43;;;;;;;57.90;21.63;;;1.40;99.90;;;;;;4995332;28;20347;-79
2023/01/26 09:10:09;;;;;;;50.97;19.73;;;1.40;99.90;;;;;;4994804;28;20415;-78
2023/01/26 09:12:34;;;;;;;51.85;19.17;;;1.40;99.90;;;;;;4994929;28;20093;-79
2023/01/26 09:15:00;;;;;;;50.67;19.67;;;1.50;99.90;;;;;;4977511;28;20022;-79
2023/01/26 09:17:26;;;;;;;51.55;18.70;;;1.50;99.90;;;;;;4977371;28;20076;-79
2023/01/26 09:19:51;;;;;;;51.65;19.58;;;1.60;99.90;;;;;;4994942;28;20096;-79
2023/01/26 09:22:17;;;;;;;53.35;21.63;;;1.60;99.90;;;;;;4977226;28;20127;-79
2023/01/26 09:24:42;;;;;;;52.97;20.40;;;1.60;99.90;;;;;;4977222;28;20026;-79
2023/01/26 09:27:08;;;;;;;58.47;21.10;;;1.50;99.90;;;;;;4994348;28;20037;-79
2023/01/26 09:29:34;;;;;;;56.88;20.83;;;1.50;99.90;;;;;;4977358;28;20376;-79
2023/01/26 09:31:59;;;;;;;60.85;19.30;;;1.60;99.90;;;;;;4994644;28;20034;-79
2023/01/26 09:34:25;;;;;;;50.92;20.10;;;1.60;99.90;;;;;;4994272;28;20031;-79
2023/01/26 09:36:51;;;;;;;60.95;20.10;;;1.50;99.90;;;;;;4976974;28;20030;-79
2023/01/26 09:39:16;;;;;;;55.97;20.98;;;1.50;99.90;;;;;;4994976;28;20046;-79
2023/01/26 09:41:42;;;;;;;51.65;19.52;;;1.50;99.90;;;;;;4994421;28;20066;-79
2023/01/26 09:44:29;;;;;;;56.78;20.92;;;1.60;99.90;;;;;;4995009;28;20026;-80
2023/01/26 09:47:19;;;;;;;52.45;19.45;;;1.60;99.90;;;;;;4995595;28;20027;-79
2023/01/26 09:50:18;;;;;;;52.20;18.95;;;1.70;99.90;;;;;;4977978;28;20092;-80
2023/01/26 09:52:54;;;;;;;48.45;18.75;;;1.70;99.90;;;;;;4980268;28;20134;-80
2023/01/26 09:55:22;;;;;;;50.35;20.00;;;1.80;99.90;;;;;;4978362;28;20081;-79
2023/01/26 09:58:05;;;;;;;45.17;18.17;;;1.80;99.90;;;;;;4994683;28;20031;-80
2023/01/26 10:00:42;;;;;;;54.00;19.23;;;1.80;99.90;;;;;;4994961;28;20033;-80
2023/01/26 10:03:34;;;;;;;52.88;20.60;;;1.90;99.90;;;;;;4994878;28;20030;-79
2023/01/26 10:06:20;;;;;;;45.90;18.45;;;1.90;99.90;;;;;;4995083;28;20035;-79
2023/01/26 10:08:48;;;;;;;45.42;17.20;;;1.80;99.90;;;;;;4977122;28;20109;-79
2023/01/26 10:11:43;;;;;;;47.78;17.83;;;1.80;99.90;;;;;;4976935;28;20042;-78
2023/01/26 10:14:22;;;;;;;49.47;17.42;;;1.80;99.90;;;;;;4996085;28;20073;-79
2023/01/26 10:16:50;;;;;;;53.03;18.52;;;1.90;99.90;;;;;;4998077;28;20388;-79
2023/01/26 10:19:32;;;;;;;44.10;14.87;;;1.90;99.90;;;;;;4998256;28;20030;-79
2023/01/26 10:22:02;;;;;;;45.10;18.17;;;1.90;99.90;;;;;;4980402;28;20101;-79
2023/01/26 10:24:28;;;;;;;44.28;16.38;;;1.90;99.90;;;;;;4998409;28;20018;-79
2023/01/26 10:26:57;;;;;;;43.13;18.20;;;1.90;99.90;;;;;;4980503;28;20169;-79
2023/01/26 10:29:22;;;;;;;45.10;17.25;;;1.80;99.90;;;;;;4997874;28;20022;-79
2023/01/26 10:31:48;;;;;;;47.13;16.17;;;1.90;99.90;;;;;;4980250;28;20392;-79
2023/01/26 10:34:24;;;;;;;44.95;17.10;;;1.90;99.90;;;;;;4980266;28;20032;-79
2023/01/26 10:36:58;;;;;;;42.95;15.55;;;1.90;99.90;;;;;;4998078;28;20381;-79
2023/01/26 10:39:24;;;;;;;49.28;17.00;;;1.90;99.90;;;;;;4997471;28;20042;-79
2023/01/26 10:42:00;;;;;;;42.28;15.48;;;2.00;99.90;;;;;;4997550;28;20049;-79
2023/01/26 10:44:31;;;;;;;44.83;16.50;;;1.90;99.90;;;;;;4980079;28;20027;-79
2023/01/26 10:47:04;;;;;;;44.17;16.63;;;1.90;99.90;;;;;;4997625;28;20030;-79
2023/01/26 10:49:30;;;;;;;44.13;16.85;;;1.90;99.90;;;;;;4997458;28;20038;-79
2023/01/26 10:52:14;;;;;;;42.05;16.98;;;1.90;99.90;;;;;;4996949;28;20031;-80
2023/01/26 10:54:42;;;;;;;41.58;16.00;;;2.00;99.90;;;;;;4997611;28;20469;-79
2023/01/26 10:57:29;;;;;;;38.97;15.27;;;2.00;99.90;;;;;;4979751;28;20512;-79
2023/01/26 11:00:07;;;;;;;38.35;15.20;;;2.00;99.90;;;;;;4997177;28;20022;-80
2023/01/26 11:02:34;;;;;;;40.13;15.40;;;2.00;99.90;;;;;;4980214;28;20035;-80
2023/01/26 11:05:08;;;;;;;37.13;14.95;;;2.00;99.90;;;;;;4979881;28;20073;-79
2023/01/26 11:07:38;;;;;;;38.55;15.80;;;2.00;99.90;;;;;;4996858;28;20113;-79
2023/01/26 11:10:34;;;;;;;37.13;13.80;;;2.00;99.90;;;;;;4997350;28;20031;-79
2023/01/26 11:13:06;;;;;;;37.58;14.30;;;2.10;99.90;;;;;;4980893;28;20034;-79
2023/01/26 11:15:37;;;;;;;37.22;14.57;;;2.10;99.90;;;;;;4997130;28;20026;-79
2023/01/26 11:18:14;;;;;;;37.22;15.70;;;2.20;99.90;;;;;;4996910;28;20113;-80
2023/01/26 11:20:43;;;;;;;36.28;13.25;;;2.10;99.90;;;;;;4997137;28;20026;-79
2023/01/26 11:23:18;;;;;;;38.58;15.73;;;2.00;99.90;;;;;;4996822;28;20027;-80
2023/01/26 11:26:04;;;;;;;40.63;15.15;;;2.00;99.90;;;;;;4996442;28;20065;-79
2023/01/26 11:28:35;;;;;;;35.20;13.75;;;2.00;99.90;;;;;;4982984;28;20039;-80
2023/01/26 11:31:19;;;;;;;37.40;13.93;;;2.00;99.90;;;;;;4996369;28;20030;-79
2023/01/26 11:34:05;;;;;;;36.88;13.55;;;2.00;99.90;;;;;;4996508;28;20026;-79
2023/01/26 11:37:02;;;;;;;38.25;14.13;;;2.00;99.90;;;;;;4996587;28;20381;-79
2023/01/26 11:39:41;;;;;;;35.20;14.50;;;2.10;99.90;;;;;;4968640;28;20050;-79
2023/01/26 11:42:16;;;;;;;;;;;2.20;99.90;;;;;;4980046;28;20034;-79
2023/01/26 11:45:13;;;;;;;36.88;13.60;;;2.20;99.90;;;;;;4997071;28;19941;-79
2023/01/26 11:47:45;;;;;;;31.17;13.27;;;2.30;99.90;;;;;;4980528;28;20026;-79
2023/01/26 11:50:20;;;;;;;36.95;13.23;;;2.30;99.90;;;;;;4998835;28;20113;-79
2023/01/26 11:53:21;;;;;;;30.35;13.05;;;2.40;99.90;;;;;;4998992;28;20404;-80
2023/01/26 11:56:02;;;;;;;34.40;14.15;;;2.40;99.90;;;;;;4998934;28;20037;-79
2023/01/26 11:59:14;;;;;;;37.45;17.35;;;2.40;99.90;;;;;;4998958;28;20034;-80
2023/01/26 12:01:42;;;;;;;33.25;14.23;;;2.50;99.90;;;;;;4955455;28;20050;-80
2023/01/26 12:04:17;;;;;;;27.93;11.17;;;2.50;99.90;;;;;;5000015;28;20027;-79
2023/01/26 12:06:46;;;;;;;35.13;13.80;;;2.50;99.90;;;;;;5000240;28;20496;-80
2023/01/26 12:09:19;;;;;;;32.15;13.30;;;2.50;99.90;;;;;;4982023;28;20027;-79
2023/01/26 12:12:13;;;;;;;36.00;14.48;;;2.50;99.90;;;;;;4999076;28;20038;-79
2023/01/26 12:15:07;;;;;;;34.50;13.60;;;2.50;99.90;;;;;;4978195;28;20097;-79
2023/01/26 12:17:41;;;;;;;41.92;14.70;;;2.50;99.90;;;;;;4997375;28;20034;-80
2023/01/26 12:20:13;;;;;;;35.00;14.50;;;2.50;99.90;;;;;;4979863;28;20057;-80
2023/01/26 12:22:46;;;;;;;31.17;13.40;;;2.40;99.90;;;;;;4997258;28;20034;-80
2023/01/26 12:25:18;;;;;;;36.45;15.20;;;2.50;99.90;;;;;;4998620;28;20061;-80
2023/01/26 12:27:55;;;;;;;38.08;15.15;;;2.50;99.90;;;;;;4997571;28;20030;-79
2023/01/26 12:30:32;;;;;;;36.17;14.80;;;2.50;99.90;;;;;;4998129;28;20080;-80
2023/01/26 12:32:58;;;;;;;37.38;14.80;;;2.50;99.90;;;;;;4997356;28;20022;-80
2023/01/26 12:35:39;;;;;;;34.60;15.07;;;2.50;99.90;;;;;;4996898;28;20022;-80
2023/01/26 12:38:15;;;;;;;35.33;13.63;;;2.50;99.90;;;;;;4979895;28;20051;-80
2023/01/26 12:40:51;;;;;;;36.33;14.43;;;2.50;99.90;;;;;;4980567;28;20470;-80
2023/01/26 12:43:17;;;;;;;34.17;14.52;;;2.50;99.90;;;;;;4997994;28;20034;-80
2023/01/26 12:45:48;;;;;;;28.63;12.88;;;2.50;99.90;;;;;;4996917;28;20026;-80
2023/01/26 12:48:19;;;;;;;33.72;13.30;;;2.50;99.90;;;;;;4997487;28;20027;-80
2023/01/26 12:50:47;;;;;;;34.55;13.82;;;2.50;99.90;;;;;;4979761;28;20022;-80
2023/01/26 12:53:18;;;;;;;33.67;13.80;;;2.40;99.90;;;;;;4996973;28;20026;-80
2023/01/26 12:55:58;;;;;;;34.58;14.02;;;2.40;99.90;;;;;;4978376;28;20026;-80
2023/01/26 12:58:30;;;;;;;33.00;13.50;;;2.40;99.90;;;;;;4996549;28;20022;-80
2023/01/26 13:01:05;;;;;;;36.15;14.35;;;2.50;99.90;;;;;;4996767;28;20109;-80
2023/01/26 13:03:38;;;;;;;36.15;14.98;;;2.40;99.90;;;;;;4996870;28;20030;-81
2023/01/26 13:06:09;;;;;;;30.52;12.30;;;2.50;99.90;;;;;;4996465;28;20026;-79
2023/01/26 13:08:35;;;;;;;30.85;12.43;;;2.50;99.90;;;;;;4979168;28;20387;-78
2023/01/26 13:11:03;;;;;;;35.53;14.68;;;2.50;99.90;;;;;;4969037;28;20126;-80
2023/01/26 13:13:53;;;;;;;35.95;15.07;;;2.50;99.90;;;;;;4977063;28;20083;-80
2023/01/26 13:16:24;;;;;;;36.33;15.05;;;2.50;99.90;;;;;;4976746;28;20109;-81
2023/01/26 13:19:00;;;;;;;35.05;13.27;;;2.50;99.90;;;;;;4959782;28;20034;-75
2023/01/26 13:21:38;;;;;;;31.83;14.25;;;2.40;99.90;;;;;;4977049;28;20480;-74
2023/01/26 13:24:23;;;;;;;30.95;14.15;;;2.50;99.90;;;;;;4977390;28;20105;-74
2023/01/26 13:26:52;;;;;;;33.15;12.85;;;2.40;99.90;;;;;;4978275;28;20034;-77
2023/01/26 13:29:27;;;;;;;36.83;13.35;;;2.40;99.90;;;;;;4978495;28;20379;-74
2023/01/26 13:32:08;;;;;;;32.75;13.63;;;2.40;99.90;;;;;;4977050;28;20546;-72
2023/01/26 13:34:42;;;;;;;33.47;14.57;;;2.40;99.90;;;;;;4958764;28;20473;-72
2023/01/26 13:37:18;;;;;;;36.10;14.65;;;2.40;99.90;;;;;;4976224;28;20031;-76
2023/01/26 13:39:50;;;;;;;35.45;14.80;;;2.30;99.90;;;;;;4975914;28;20046;-70
2023/01/26 13:42:28;;;;;;;36.17;14.02;;;2.30;99.90;;;;;;4974968;28;20034;-74
2023/01/26 13:45:01;;;;;;;40.83;16.25;;;2.30;99.90;;;;;;4975405;28;20038;-72